Time;durP1;ratioP1;P1;durP2;ratioP2;P2;SDS_P1;SDS_P2;PMS_P1;PMS_P2;Temp;Humidity;BMP_temperature;BMP_pressure;BME280_temperature;BME280_humidity;BME280_pressure;Samples;Min_cycle;Max_cycle;Signal;HPM_P1;HPM_P2
2023/06/15 00:01:49;;;;;;;1.88;1.27;;;25.00;38.40;;;;;;5059773;28;20174;-77
2023/06/15 00:04:17;;;;;;;1.35;1.10;;;24.90;38.30;;;;;;5052687;28;20076;-78
2023/06/15 00:06:43;;;;;;;1.30;1.20;;;24.90;38.40;;;;;;5043950;28;20028;-77
2023/06/15 00:09:09;;;;;;;1.15;1.05;;;24.90;38.40;;;;;;5034567;28;20048;-77
2023/06/15 00:11:34;;;;;;;1.58;1.30;;;24.80;38.30;;;;;;5039543;28;20115;-77
2023/06/15 00:14:00;;;;;;;1.63;1.27;;;24.80;38.40;;;;;;5036794;28;20036;-77
2023/06/15 00:16:31;;;;;;;2.00;1.30;;;24.80;39.10;;;;;;5050512;28;20421;-77
2023/06/15 00:18:58;;;;;;;2.17;1.40;;;24.70;38.40;;;;;;5033507;28;20495;-77
2023/06/15 00:21:27;;;;;;;1.50;1.38;;;24.70;38.40;;;;;;5044665;28;20021;-75
2023/06/15 00:23:53;;;;;;;1.85;1.48;;;24.70;38.50;;;;;;5043116;28;20049;-77
2023/06/15 00:26:19;;;;;;;1.38;1.27;;;24.70;38.50;;;;;;5047163;28;20061;-77
2023/06/15 00:28:47;;;;;;;1.23;1.10;;;24.70;38.50;;;;;;5051124;28;20043;-76
2023/06/15 00:31:13;;;;;;;1.90;1.50;;;24.60;38.50;;;;;;5048443;28;20240;-78
2023/06/15 00:33:38;;;;;;;1.48;1.38;;;24.60;38.50;;;;;;5039318;28;20080;-76
2023/06/15 00:36:07;;;;;;;1.70;1.33;;;24.60;38.50;;;;;;5035336;28;20436;-76
2023/06/15 00:38:33;;;;;;;1.80;1.25;;;24.50;38.50;;;;;;5038310;28;20029;-77
2023/06/15 00:40:59;;;;;;;2.63;1.33;;;24.50;38.60;;;;;;5034070;28;20290;-76
2023/06/15 00:43:25;;;;;;;1.90;1.50;;;24.50;38.60;;;;;;5052985;28;20060;-75
2023/06/15 00:45:51;;;;;;;1.95;1.40;;;24.40;38.60;;;;;;5019770;28;20033;-75
2023/06/15 00:48:17;;;;;;;1.73;1.33;;;24.40;38.70;;;;;;5019233;28;20523;-73
2023/06/15 00:50:43;;;;;;;3.25;1.50;;;24.40;38.70;;;;;;5053894;28;20029;-74
2023/06/15 00:53:10;;;;;;;3.47;1.63;;;24.40;38.80;;;;;;5052504;28;20061;-73
2023/06/15 00:55:37;;;;;;;2.53;1.50;;;24.40;38.90;;;;;;5052525;28;20441;-74
2023/06/15 00:58:04;;;;;;;1.50;1.38;;;24.30;38.80;;;;;;5036715;28;20041;-75
2023/06/15 01:00:35;;;;;;;2.03;1.52;;;24.30;38.90;;;;;;5052450;28;20037;-73
2023/06/15 01:03:04;;;;;;;1.83;1.40;;;24.30;39.00;;;;;;5020862;28;20041;-73
2023/06/15 01:05:34;;;;;;;1.92;1.60;;;24.20;39.00;;;;;;5052368;28;20033;-73
2023/06/15 01:08:04;;;;;;;2.67;1.50;;;24.20;39.00;;;;;;5053712;28;20037;-73
2023/06/15 01:10:32;;;;;;;1.83;1.42;;;24.20;39.10;;;;;;5052625;28;20033;-73
2023/06/15 01:13:00;;;;;;;1.75;1.58;;;24.20;39.10;;;;;;5052966;28;20033;-76
2023/06/15 01:15:26;;;;;;;1.98;1.50;;;24.10;39.20;;;;;;5053582;28;20493;-74
2023/06/15 01:17:56;;;;;;;2.03;1.60;;;24.10;39.20;;;;;;5052139;28;20449;-74
2023/06/15 01:20:39;;;;;;;2.00;1.50;;;24.00;39.20;;;;;;5052826;28;20025;-73
2023/06/15 01:23:40;;;;;;;2.22;1.50;;;24.10;39.40;;;;;;5053388;28;20025;-73
2023/06/15 01:26:11;;;;;;;1.45;1.35;;;24.00;39.40;;;;;;5053285;28;20022;-74
2023/06/15 01:28:41;;;;;;;2.38;1.60;;;24.00;39.40;;;;;;5053205;28;20526;-73
2023/06/15 01:31:09;;;;;;;1.70;1.35;;;24.00;39.50;;;;;;5053268;28;20029;-74
2023/06/15 01:33:47;;;;;;;2.38;1.70;;;23.90;39.50;;;;;;5035196;28;20071;-73
2023/06/15 01:36:13;;;;;;;2.13;1.52;;;23.90;39.60;;;;;;5052250;28;20041;-74
2023/06/15 01:38:41;;;;;;;2.50;1.70;;;23.80;39.60;;;;;;5051653;28;20107;-73
2023/06/15 01:41:08;;;;;;;2.22;1.65;;;23.90;39.70;;;;;;5069051;28;20029;-73
2023/06/15 01:43:37;;;;;;;1.95;1.70;;;23.80;39.70;;;;;;5053297;28;20060;-73
2023/06/15 01:46:04;;;;;;;2.95;1.85;;;23.80;39.80;;;;;;5053490;28;20028;-73
2023/06/15 01:48:32;;;;;;;2.95;1.80;;;23.80;39.90;;;;;;5052942;28;20072;-74
2023/06/15 01:50:59;;;;;;;1.95;1.60;;;23.80;40.00;;;;;;5051814;28;20495;-73
2023/06/15 01:53:25;;;;;;;2.85;1.88;;;23.70;40.00;;;;;;5051482;28;20051;-74
2023/06/15 01:55:53;;;;;;;2.60;1.95;;;23.70;40.00;;;;;;5053451;28;20024;-74
2023/06/15 01:58:19;;;;;;;3.00;1.80;;;23.70;40.10;;;;;;5051533;28;20044;-73
2023/06/15 02:00:46;;;;;;;2.20;1.60;;;23.60;40.10;;;;;;5035823;28;20036;-73
2023/06/15 02:03:12;;;;;;;2.10;1.83;;;23.60;40.20;;;;;;5034957;28;20033;-73
2023/06/15 02:05:39;;;;;;;2.50;1.77;;;23.60;40.30;;;;;;5051911;28;20036;-73
2023/06/15 02:08:10;;;;;;;2.47;1.75;;;23.60;40.30;;;;;;5034761;28;20175;-76
2023/06/15 02:10:37;;;;;;;2.80;1.80;;;23.60;40.40;;;;;;5051526;28;20094;-74
2023/06/15 02:13:05;;;;;;;1.90;1.63;;;23.50;40.50;;;;;;5035528;28;20362;-74
2023/06/15 02:15:32;;;;;;;2.53;1.75;;;23.50;40.50;;;;;;5052152;28;20029;-73
2023/06/15 02:18:02;;;;;;;3.22;1.95;;;23.50;40.60;;;;;;5067904;28;20512;-74
2023/06/15 02:20:29;;;;;;;2.50;2.00;;;23.40;40.70;;;;;;5052376;28;20048;-73
2023/06/15 02:22:59;;;;;;;2.33;1.70;;;23.40;40.80;;;;;;5035153;28;20108;-75
2023/06/15 02:25:27;;;;;;;3.38;1.92;;;23.40;40.80;;;;;;5052875;28;20107;-73
2023/06/15 02:27:53;;;;;;;2.63;1.75;;;23.30;40.80;;;;;;5035940;28;20033;-74
2023/06/15 02:30:20;;;;;;;2.80;2.00;;;23.30;41.00;;;;;;5035075;28;20039;-74
2023/06/15 02:32:48;;;;;;;3.80;2.13;;;23.30;41.10;;;;;;5052302;28;20148;-74
2023/06/15 02:35:14;;;;;;;2.60;2.00;;;23.30;41.10;;;;;;5019480;28;20037;-74
2023/06/15 02:37:41;;;;;;;3.15;1.83;;;23.30;41.10;;;;;;5051867;28;20433;-74
2023/06/15 02:40:08;;;;;;;2.45;1.67;;;23.30;41.30;;;;;;5034605;28;20025;-75
2023/06/15 02:42:35;;;;;;;2.28;1.80;;;23.20;41.30;;;;;;5034650;28;20029;-73
2023/06/15 02:45:02;;;;;;;2.30;1.77;;;23.20;41.30;;;;;;5034752;28;20371;-74
2023/06/15 02:47:29;;;;;;;3.72;2.10;;;23.20;41.20;;;;;;5050614;28;20032;-74
2023/06/15 02:49:58;;;;;;;2.30;1.65;;;23.20;41.30;;;;;;5051306;28;20039;-73
2023/06/15 02:52:26;;;;;;;2.55;1.80;;;23.10;41.20;;;;;;5038227;28;20112;-74
2023/06/15 02:54:52;;;;;;;2.80;2.15;;;23.20;41.30;;;;;;5037944;28;20124;-74
2023/06/15 02:57:19;;;;;;;2.45;1.73;;;23.10;41.30;;;;;;5054699;28;20043;-73
2023/06/15 03:00:04;;;;;;;2.63;1.77;;;23.10;41.40;;;;;;5040644;28;20477;-74
2023/06/15 03:02:33;;;;;;;2.67;1.85;;;23.00;42.00;;;;;;5038465;28;20041;-75
2023/06/15 03:04:59;;;;;;;2.67;1.80;;;23.00;41.40;;;;;;5054801;28;20127;-74
2023/06/15 03:07:34;;;;;;;2.92;1.52;;;23.00;41.50;;;;;;5039641;28;20095;-73
2023/06/15 03:10:22;;;;;;;2.63;1.55;;;23.00;41.50;;;;;;5051664;28;20390;-76
2023/06/15 03:12:48;;;;;;;1.83;1.60;;;22.90;41.50;;;;;;5055181;28;20062;-73
2023/06/15 03:15:16;;;;;;;2.17;1.70;;;22.90;41.50;;;;;;5054450;28;20481;-74
2023/06/15 03:17:43;;;;;;;2.45;1.75;;;22.90;41.60;;;;;;5054389;28;20065;-75
2023/06/15 03:20:11;;;;;;;1.88;1.65;;;22.90;41.60;;;;;;5054249;28;20029;-73
2023/06/15 03:22:39;;;;;;;2.28;1.70;;;22.80;41.60;;;;;;5055014;28;20055;-74
2023/06/15 03:25:09;;;;;;;2.38;1.58;;;22.80;41.60;;;;;;5037941;28;20040;-73
2023/06/15 03:27:35;;;;;;;2.67;1.73;;;22.80;41.70;;;;;;5054174;28;20116;-74
2023/06/15 03:30:09;;;;;;;2.00;1.73;;;22.80;41.70;;;;;;5038074;28;20131;-75
2023/06/15 03:32:34;;;;;;;3.13;1.70;;;22.80;41.80;;;;;;5021524;28;20029;-73
2023/06/15 03:35:00;;;;;;;2.00;1.65;;;22.70;41.80;;;;;;5038203;28;20029;-74
2023/06/15 03:37:27;;;;;;;3.40;1.90;;;22.70;41.80;;;;;;5053980;28;20440;-74
2023/06/15 03:39:52;;;;;;;2.13;1.77;;;22.70;42.50;;;;;;5021249;28;20044;-74
2023/06/15 03:42:18;;;;;;;2.67;1.83;;;22.60;41.80;;;;;;5054080;28;20083;-76
2023/06/15 03:44:44;;;;;;;2.50;1.73;;;22.60;41.90;;;;;;5054483;28;20044;-75
2023/06/15 03:47:10;;;;;;;4.28;1.80;;;22.60;41.90;;;;;;5054367;28;20381;-74
2023/06/15 03:49:36;;;;;;;2.47;1.73;;;22.60;42.00;;;;;;5037535;28;20040;-73
2023/06/15 03:52:03;;;;;;;2.25;1.75;;;22.60;42.00;;;;;;5020968;28;20032;-73
2023/06/15 03:54:29;;;;;;;2.13;1.55;;;22.60;42.10;;;;;;5037813;28;20035;-75
2023/06/15 03:56:55;;;;;;;2.20;1.70;;;22.50;42.10;;;;;;5054928;28;20032;-75
2023/06/15 03:59:21;;;;;;;2.83;1.90;;;22.50;42.20;;;;;;5037196;28;20182;-76
2023/06/15 04:01:47;;;;;;;1.90;1.70;;;22.50;42.10;;;;;;5037058;28;20017;-73
2023/06/15 04:04:14;;;;;;;2.40;1.92;;;22.40;42.20;;;;;;5054846;28;20052;-76
2023/06/15 04:06:45;;;;;;;2.08;1.65;;;22.40;42.30;;;;;;5053458;28;20470;-73
2023/06/15 04:09:17;;;;;;;2.03;1.70;;;22.40;42.30;;;;;;5054539;28;20120;-77
2023/06/15 04:11:42;;;;;;;2.65;1.60;;;22.40;42.40;;;;;;5037393;28;20040;-78
2023/06/15 04:14:09;;;;;;;2.55;1.90;;;22.40;42.40;;;;;;5053412;28;20033;-75
2023/06/15 04:16:35;;;;;;;1.90;1.67;;;22.30;42.40;;;;;;5054311;28;20037;-75
2023/06/15 04:19:02;;;;;;;2.88;1.80;;;22.30;42.40;;;;;;5037006;28;20036;-75
2023/06/15 04:21:28;;;;;;;2.40;1.80;;;22.30;42.50;;;;;;5036615;28;20037;-74
2023/06/15 04:23:55;;;;;;;2.67;2.00;;;22.30;42.50;;;;;;5053205;28;20090;-74
2023/06/15 04:26:21;;;;;;;2.55;1.85;;;22.30;42.60;;;;;;5036780;28;20064;-74
2023/06/15 04:28:49;;;;;;;2.03;1.80;;;22.30;42.60;;;;;;5053576;28;20040;-73
2023/06/15 04:31:21;;;;;;;2.67;1.67;;;22.20;42.60;;;;;;5036687;28;20037;-73
2023/06/15 04:33:47;;;;;;;1.95;1.60;;;22.20;42.60;;;;;;5021114;28;20029;-75
2023/06/15 04:36:14;;;;;;;2.78;1.70;;;22.20;42.70;;;;;;5036369;28;20032;-74
2023/06/15 04:38:46;;;;;;;2.53;1.75;;;22.10;42.70;;;;;;5036596;28;20041;-74
2023/06/15 04:41:16;;;;;;;1.95;1.60;;;22.20;42.80;;;;;;5036938;28;20032;-73
2023/06/15 04:43:43;;;;;;;2.28;1.60;;;22.20;42.80;;;;;;5036475;28;20120;-73
2023/06/15 04:46:14;;;;;;;2.42;1.70;;;22.20;42.90;;;;;;5036540;28;20037;-73
2023/06/15 04:48:43;;;;;;;2.15;1.88;;;22.10;42.80;;;;;;5020244;28;20476;-73
2023/06/15 04:51:13;;;;;;;2.00;1.52;;;22.10;42.90;;;;;;5036489;28;20083;-73
2023/06/15 04:53:44;;;;;;;2.47;1.90;;;22.10;43.00;;;;;;5052967;28;20140;-73
2023/06/15 04:56:11;;;;;;;2.53;1.98;;;22.10;43.10;;;;;;5036180;28;20033;-75
2023/06/15 04:58:38;;;;;;;2.35;1.80;;;22.10;42.90;;;;;;5052722;28;20123;-74
2023/06/15 05:01:06;;;;;;;3.15;1.92;;;22.10;43.00;;;;;;5036142;28;20056;-74
2023/06/15 05:03:33;;;;;;;3.25;1.65;;;22.00;43.00;;;;;;5036504;28;20037;-76
2023/06/15 05:05:59;;;;;;;1.98;1.58;;;22.00;43.00;;;;;;5052518;28;20124;-74
2023/06/15 05:08:25;;;;;;;2.50;1.95;;;22.00;43.10;;;;;;5052838;28;20351;-74
2023/06/15 05:10:52;;;;;;;2.65;1.90;;;22.00;43.10;;;;;;5035857;28;20029;-74
2023/06/15 05:13:21;;;;;;;3.03;1.90;;;22.00;43.20;;;;;;5019373;28;20036;-75
2023/06/15 05:15:48;;;;;;;2.10;1.63;;;22.00;43.20;;;;;;5035891;28;20470;-74
2023/06/15 05:18:15;;;;;;;2.28;2.00;;;22.00;43.20;;;;;;5020562;28;20474;-74
2023/06/15 05:20:41;;;;;;;3.00;1.98;;;22.00;43.20;;;;;;5019018;28;20112;-74
2023/06/15 05:23:07;;;;;;;2.10;1.70;;;22.00;43.30;;;;;;5035748;28;20033;-73
2023/06/15 05:25:34;;;;;;;2.15;1.75;;;22.00;43.30;;;;;;5035832;28;20029;-75
2023/06/15 05:28:00;;;;;;;2.35;1.65;;;22.00;43.30;;;;;;5035433;28;20052;-74
2023/06/15 05:30:26;;;;;;;3.55;1.80;;;21.90;43.30;;;;;;5035663;28;20033;-73
2023/06/15 05:32:53;;;;;;;2.70;1.90;;;22.00;43.40;;;;;;5052286;28;20078;-74
2023/06/15 05:35:20;;;;;;;2.60;1.80;;;22.00;43.40;;;;;;5035904;28;20041;-75
2023/06/15 05:37:47;;;;;;;2.25;1.63;;;21.90;43.40;;;;;;5035380;28;20171;-74
2023/06/15 05:40:14;;;;;;;2.60;1.88;;;22.00;43.40;;;;;;5052733;28;20056;-74
2023/06/15 05:42:40;;;;;;;2.20;1.80;;;22.00;43.50;;;;;;5035500;28;20082;-74
2023/06/15 05:45:06;;;;;;;2.83;1.90;;;21.90;43.50;;;;;;5051636;28;20036;-74
2023/06/15 05:47:32;;;;;;;2.65;1.73;;;22.00;43.50;;;;;;5035034;28;20053;-74
2023/06/15 05:50:00;;;;;;;4.38;1.98;;;21.90;43.50;;;;;;5035768;28;20218;-78
2023/06/15 05:52:26;;;;;;;2.22;1.80;;;22.00;43.60;;;;;;5035622;28;20044;-73
2023/06/15 05:54:53;;;;;;;2.25;1.65;;;22.00;43.60;;;;;;5035498;28;20025;-74
2023/06/15 05:57:19;;;;;;;2.25;1.83;;;22.00;43.60;;;;;;5035883;28;20055;-75
2023/06/15 05:59:48;;;;;;;2.67;1.98;;;22.00;43.60;;;;;;5036081;28;20033;-73
2023/06/15 06:02:14;;;;;;;2.15;1.77;;;22.00;43.60;;;;;;5020017;28;20126;-74
2023/06/15 06:04:40;;;;;;;2.35;1.73;;;22.00;43.60;;;;;;5051623;28;20047;-75
2023/06/15 06:07:06;;;;;;;2.78;2.10;;;22.00;43.70;;;;;;5051658;28;20391;-74
2023/06/15 06:09:34;;;;;;;2.70;1.88;;;22.00;43.70;;;;;;5035421;28;20033;-74
2023/06/15 06:12:01;;;;;;;2.75;1.88;;;22.00;43.70;;;;;;5052533;28;20033;-75
2023/06/15 06:14:28;;;;;;;3.17;2.05;;;22.00;43.70;;;;;;5035177;28;20025;-76
2023/06/15 06:16:55;;;;;;;2.30;1.70;;;22.10;43.80;;;;;;5053504;28;20047;-75
2023/06/15 06:19:22;;;;;;;2.80;2.20;;;22.10;43.80;;;;;;5051534;28;20056;-74
2023/06/15 06:21:48;;;;;;;3.30;2.17;;;22.00;43.80;;;;;;5051916;28;20094;-74
2023/06/15 06:24:15;;;;;;;3.58;1.98;;;22.10;43.90;;;;;;5036289;28;20119;-75
2023/06/15 06:26:43;;;;;;;3.30;1.95;;;22.10;43.90;;;;;;5055556;28;20028;-75
2023/06/15 06:29:09;;;;;;;2.95;1.95;;;22.10;43.90;;;;;;5055379;28;20048;-74
2023/06/15 06:31:35;;;;;;;2.28;1.77;;;22.10;44.00;;;;;;5056695;28;20044;-74
2023/06/15 06:34:01;;;;;;;3.75;1.80;;;22.10;44.00;;;;;;5055455;28;20033;-74
2023/06/15 06:36:28;;;;;;;2.40;1.95;;;22.10;44.00;;;;;;5039073;28;20033;-73
2023/06/15 06:38:54;;;;;;;2.30;1.75;;;22.10;44.00;;;;;;5055411;28;20078;-73
2023/06/15 06:41:20;;;;;;;2.17;1.77;;;22.10;44.00;;;;;;5056159;28;20497;-75
2023/06/15 06:43:45;;;;;;;2.75;1.90;;;22.10;44.00;;;;;;5056787;28;20029;-73
2023/06/15 06:46:13;;;;;;;2.78;2.13;;;22.20;44.10;;;;;;5054975;28;20033;-74
2023/06/15 06:48:39;;;;;;;3.40;2.03;;;22.20;44.00;;;;;;5054618;28;20093;-73
2023/06/15 06:51:04;;;;;;;2.42;1.92;;;22.20;44.00;;;;;;5055401;28;20040;-74
2023/06/15 06:53:30;;;;;;;3.00;1.73;;;22.20;44.00;;;;;;5054921;28;20032;-73
2023/06/15 06:55:56;;;;;;;2.50;1.83;;;22.30;44.10;;;;;;5056576;28;20051;-73
2023/06/15 06:58:21;;;;;;;3.22;2.10;;;22.30;44.10;;;;;;5039335;28;20349;-73
2023/06/15 07:00:47;;;;;;;2.97;1.98;;;22.20;44.10;;;;;;5056490;28;20075;-73
2023/06/15 07:03:13;;;;;;;2.92;2.00;;;22.30;44.20;;;;;;5055305;28;20069;-73
2023/06/15 07:05:38;;;;;;;2.70;1.83;;;22.30;44.10;;;;;;5055235;28;20032;-73
2023/06/15 07:08:04;;;;;;;2.63;2.00;;;22.30;44.10;;;;;;5055905;28;20120;-74
2023/06/15 07:10:30;;;;;;;2.72;1.90;;;22.30;44.80;;;;;;5038816;28;20059;-74
2023/06/15 07:12:56;;;;;;;2.42;1.90;;;22.30;44.20;;;;;;5054448;28;20482;-73
2023/06/15 07:15:27;;;;;;;2.53;1.92;;;22.40;44.20;;;;;;5054928;28;20028;-74
2023/06/15 07:17:53;;;;;;;2.25;1.98;;;22.40;44.80;;;;;;5054868;28;20158;-73
2023/06/15 07:20:19;;;;;;;2.95;1.90;;;22.40;44.00;;;;;;5021384;28;20033;-73
2023/06/15 07:22:45;;;;;;;2.83;1.90;;;22.40;44.00;;;;;;5037915;28;20032;-74
2023/06/15 07:25:10;;;;;;;2.60;1.83;;;22.50;44.00;;;;;;5055618;28;20442;-73
2023/06/15 07:27:36;;;;;;;3.38;2.00;;;22.50;44.00;;;;;;5055535;28;20377;-73
2023/06/15 07:30:02;;;;;;;3.20;2.03;;;22.50;43.90;;;;;;5055066;28;20435;-74
2023/06/15 07:32:28;;;;;;;2.65;2.00;;;22.60;43.90;;;;;;5037945;28;20450;-74
2023/06/15 07:34:54;;;;;;;2.47;1.92;;;22.60;43.80;;;;;;5055118;28;20091;-73
2023/06/15 07:37:19;;;;;;;2.85;2.00;;;22.70;43.70;;;;;;5036785;28;20041;-73
2023/06/15 07:39:45;;;;;;;3.72;2.00;;;22.70;43.70;;;;;;5055684;28;20484;-73
2023/06/15 07:42:11;;;;;;;2.03;1.70;;;22.80;43.60;;;;;;5053977;28;20488;-73
2023/06/15 07:44:36;;;;;;;2.60;2.00;;;22.80;43.50;;;;;;5037435;28;20064;-72
2023/06/15 07:47:03;;;;;;;2.45;1.83;;;22.90;43.40;;;;;;5054833;28;20032;-75
2023/06/15 07:49:28;;;;;;;2.83;2.20;;;23.00;43.40;;;;;;5053945;28;20083;-75
2023/06/15 07:51:54;;;;;;;2.70;1.85;;;23.00;43.30;;;;;;5055400;28;20040;-73
2023/06/15 07:54:20;;;;;;;2.45;1.98;;;23.10;43.20;;;;;;5054833;28;20033;-73
2023/06/15 07:56:46;;;;;;;2.40;1.90;;;23.20;43.90;;;;;;5037404;28;20048;-73
2023/06/15 07:59:12;;;;;;;2.88;1.90;;;23.20;43.10;;;;;;5054777;28;20425;-73
2023/06/15 08:01:38;;;;;;;2.60;2.00;;;23.30;43.00;;;;;;5054069;28;20116;-73
2023/06/15 08:04:04;;;;;;;3.22;2.00;;;23.40;43.00;;;;;;5053509;28;20065;-73
2023/06/15 08:06:30;;;;;;;2.38;2.00;;;23.50;43.00;;;;;;5053634;28;20512;-73
2023/06/15 08:08:56;;;;;;;2.67;1.90;;;23.50;42.90;;;;;;5036911;28;20128;-72
2023/06/15 08:11:22;;;;;;;3.95;2.20;;;23.60;42.80;;;;;;5053358;28;20102;-73
2023/06/15 08:13:48;;;;;;;1.92;1.65;;;23.70;42.80;;;;;;5053421;28;20182;-74
2023/06/15 08:16:14;;;;;;;2.45;1.83;;;23.80;42.80;;;;;;5054891;28;20382;-75
2023/06/15 08:18:40;;;;;;;2.25;1.80;;;23.80;42.70;;;;;;5055171;28;20040;-73
2023/06/15 08:21:05;;;;;;;2.30;1.75;;;23.90;42.70;;;;;;5036675;28;20040;-73
2023/06/15 08:23:31;;;;;;;2.58;1.90;;;24.00;42.70;;;;;;5053371;28;20025;-73
2023/06/15 08:25:57;;;;;;;2.13;1.67;;;24.10;42.60;;;;;;5053392;28;20040;-73
2023/06/15 08:28:22;;;;;;;3.47;1.88;;;24.20;42.70;;;;;;5054108;28;20400;-73
2023/06/15 08:30:49;;;;;;;1.90;1.67;;;24.20;42.60;;;;;;5053814;28;20033;-74
2023/06/15 08:33:18;;;;;;;2.35;1.70;;;24.40;42.60;;;;;;5052900;28;20037;-73
2023/06/15 08:35:44;;;;;;;1.88;1.60;;;24.40;42.50;;;;;;5053317;28;20041;-75
2023/06/15 08:38:10;;;;;;;2.00;1.80;;;24.50;42.50;;;;;;5053165;28;20044;-72
2023/06/15 08:40:35;;;;;;;2.55;2.00;;;24.60;42.60;;;;;;5036280;28;20374;-73
2023/06/15 08:43:03;;;;;;;3.08;1.90;;;24.70;42.50;;;;;;5052890;28;20025;-75
2023/06/15 08:45:38;;;;;;;2.75;1.92;;;24.80;42.50;;;;;;5052506;28;20040;-72
2023/06/15 08:48:05;;;;;;;2.35;1.95;;;24.80;42.50;;;;;;5051673;28;20106;-70
2023/06/15 08:50:32;;;;;;;2.00;1.63;;;24.90;42.50;;;;;;5053664;28;20104;-72
2023/06/15 08:52:59;;;;;;;1.90;1.63;;;25.10;42.50;;;;;;5053314;28;20094;-70
2023/06/15 08:55:25;;;;;;;2.10;1.60;;;25.10;42.50;;;;;;5052581;28;20063;-72
2023/06/15 08:57:52;;;;;;;2.22;1.95;;;25.20;42.50;;;;;;5036223;28;20139;-72
2023/06/15 09:00:19;;;;;;;2.15;1.70;;;25.30;42.50;;;;;;5036379;28;20033;-71
2023/06/15 09:02:46;;;;;;;2.45;1.75;;;25.40;42.50;;;;;;5052605;28;20056;-71
2023/06/15 09:05:12;;;;;;;2.45;1.90;;;25.50;42.50;;;;;;5053053;28;20060;-71
2023/06/15 09:07:38;;;;;;;1.58;1.48;;;25.60;42.40;;;;;;5053515;28;20035;-72
2023/06/15 09:10:20;;;;;;;2.00;1.60;;;25.70;42.40;;;;;;5053309;28;20473;-73
2023/06/15 09:12:55;;;;;;;2.25;1.50;;;25.70;42.40;;;;;;5052664;28;20483;-70
2023/06/15 09:15:22;;;;;;;;;;;25.80;42.20;;;;;;5052520;28;20111;-71
2023/06/15 09:17:53;;;;;;;2.40;1.50;;;25.90;42.00;;;;;;5053039;28;20273;-70
2023/06/15 09:20:20;;;;;;;2.08;1.55;;;26.00;42.00;;;;;;5052352;28;20051;-71
2023/06/15 09:22:46;;;;;;;1.73;1.55;;;26.10;42.00;;;;;;5053476;28;20028;-71
2023/06/15 09:25:13;;;;;;;2.42;1.73;;;26.20;42.00;;;;;;5053222;28;20033;-71
2023/06/15 09:27:39;;;;;;;1.85;1.45;;;26.30;42.00;;;;;;5052984;28;20119;-72
2023/06/15 09:30:08;;;;;;;1.85;1.67;;;26.40;42.00;;;;;;5053129;28;20124;-71
2023/06/15 09:32:34;;;;;;;2.20;1.60;;;26.50;42.00;;;;;;5053013;28;20029;-71
2023/06/15 09:35:00;;;;;;;2.50;1.73;;;26.60;42.00;;;;;;5052000;28;20037;-71
2023/06/15 09:37:30;;;;;;;2.25;1.75;;;26.60;41.80;;;;;;5053305;28;20029;-70
2023/06/15 09:39:56;;;;;;;2.70;1.80;;;26.70;41.80;;;;;;5052984;28;20520;-70
2023/06/15 09:42:26;;;;;;;1.65;1.48;;;26.80;41.80;;;;;;5052190;28;20167;-70
2023/06/15 09:45:05;;;;;;;2.35;1.90;;;26.90;41.80;;;;;;5051668;28;20040;-71
2023/06/15 09:47:31;;;;;;;2.20;1.70;;;27.00;41.80;;;;;;5053146;28;20056;-72
2023/06/15 09:49:58;;;;;;;2.55;1.83;;;27.10;41.70;;;;;;5035829;28;20017;-73
2023/06/15 09:52:25;;;;;;;1.90;1.60;;;27.20;41.80;;;;;;5053401;28;20033;-74
2023/06/15 09:54:53;;;;;;;2.15;1.80;;;27.30;41.70;;;;;;5035135;28;20465;-74
2023/06/15 09:57:19;;;;;;;1.65;1.40;;;27.40;41.70;;;;;;5053023;28;20043;-74
2023/06/15 09:59:48;;;;;;;2.22;1.60;;;27.50;41.60;;;;;;5051542;28;20116;-75
2023/06/15 10:02:19;;;;;;;2.53;1.73;;;27.60;41.60;;;;;;5052057;28;20124;-74
2023/06/15 10:04:47;;;;;;;3.10;1.80;;;27.70;41.60;;;;;;5053089;28;20064;-75
2023/06/15 10:07:17;;;;;;;2.10;1.40;;;27.70;41.50;;;;;;5051725;28;20033;-75
2023/06/15 10:09:46;;;;;;;3.00;1.88;;;27.80;41.40;;;;;;5052822;28;20037;-75
2023/06/15 10:12:14;;;;;;;1.63;1.30;;;27.90;41.40;;;;;;5052630;28;20127;-75
2023/06/15 10:14:52;;;;;;;1.67;1.40;;;28.00;41.30;;;;;;5051422;28;20044;-76
2023/06/15 10:17:23;;;;;;;2.28;1.77;;;28.20;41.30;;;;;;5051742;28;20112;-75
2023/06/15 10:19:52;;;;;;;2.65;1.83;;;28.30;41.30;;;;;;5052627;28;20021;-76
2023/06/15 10:22:21;;;;;;;2.05;1.60;;;28.30;41.10;;;;;;5053098;28;20032;-78
2023/06/15 10:24:47;;;;;;;1.67;1.40;;;28.40;41.00;;;;;;5051291;28;20065;-76
2023/06/15 10:27:14;;;;;;;3.47;1.85;;;28.50;41.00;;;;;;5053505;28;20462;-76
2023/06/15 10:30:01;;;;;;;2.15;1.55;;;28.60;40.90;;;;;;5052802;28;20044;-75
2023/06/15 10:32:35;;;;;;;2.03;1.55;;;28.70;40.80;;;;;;5052978;28;20029;-75
2023/06/15 10:35:09;;;;;;;1.88;1.55;;;28.80;40.70;;;;;;5053381;28;20029;-75
2023/06/15 10:38:02;;;;;;;1.70;1.60;;;28.90;40.60;;;;;;5035100;28;20024;-75
2023/06/15 10:40:31;;;;;;;1.70;1.60;;;28.90;40.50;;;;;;5051695;28;20033;-75
2023/06/15 10:42:59;;;;;;;1.55;1.42;;;29.10;40.40;;;;;;5051219;28;20029;-75
2023/06/15 10:45:31;;;;;;;1.60;1.42;;;29.10;40.40;;;;;;5051661;28;20033;-76
2023/06/15 10:48:02;;;;;;;2.22;1.70;;;29.10;40.40;;;;;;5034430;28;20041;-76
2023/06/15 10:50:43;;;;;;;2.30;1.58;;;29.20;40.40;;;;;;5035017;28;20060;-75
2023/06/15 10:53:25;;;;;;;1.95;1.40;;;29.20;40.30;;;;;;5051203;28;20024;-74
2023/06/15 10:55:58;;;;;;;1.50;1.40;;;29.30;40.30;;;;;;5034863;28;20055;-75
2023/06/15 10:58:26;;;;;;;1.90;1.50;;;29.40;40.20;;;;;;5052196;28;20024;-75
2023/06/15 11:01:15;;;;;;;2.13;1.60;;;29.40;40.20;;;;;;5051387;28;20112;-75
2023/06/15 11:03:42;;;;;;;2.08;1.48;;;29.50;40.30;;;;;;5052204;28;20051;-74
2023/06/15 11:06:17;;;;;;;2.17;1.60;;;29.60;40.30;;;;;;5034773;28;20056;-75
2023/06/15 11:08:51;;;;;;;2.30;1.70;;;29.60;40.30;;;;;;5051362;28;20056;-75
2023/06/15 11:11:31;;;;;;;2.15;1.90;;;29.70;40.40;;;;;;5053168;28;20481;-75
2023/06/15 11:14:02;;;;;;;1.70;1.60;;;29.70;40.30;;;;;;5054468;28;20029;-75
2023/06/15 11:16:33;;;;;;;2.63;1.48;;;29.70;40.30;;;;;;5055672;28;20033;-75
2023/06/15 11:19:13;;;;;;;2.13;1.67;;;29.80;40.30;;;;;;5055383;28;20029;-75
2023/06/15 11:21:50;;;;;;;2.38;1.60;;;29.80;40.20;;;;;;5055544;28;20072;-74
2023/06/15 11:24:19;;;;;;;3.15;1.70;;;29.90;40.30;;;;;;5055990;28;20063;-75
2023/06/15 11:26:48;;;;;;;2.92;1.83;;;29.90;40.30;;;;;;5056206;28;20025;-77
2023/06/15 11:29:22;;;;;;;2.67;1.40;;;29.90;40.20;;;;;;5054510;28;20068;-75
2023/06/15 11:31:49;;;;;;;2.00;1.70;;;29.90;40.20;;;;;;5055385;28;20393;-76
2023/06/15 11:34:15;;;;;;;2.05;1.52;;;30.00;40.30;;;;;;5054580;28;20103;-76
2023/06/15 11:36:41;;;;;;;2.38;1.48;;;30.00;40.30;;;;;;5055234;28;20033;-75
2023/06/15 11:39:20;;;;;;;2.22;1.50;;;30.00;40.30;;;;;;5054529;28;20037;-76
2023/06/15 11:41:50;;;;;;;2.00;1.40;;;30.00;40.30;;;;;;5054442;28;20036;-75
2023/06/15 11:44:18;;;;;;;1.75;1.50;;;30.10;40.30;;;;;;5053889;28;20171;-75
2023/06/15 11:46:54;;;;;;;1.85;1.60;;;30.10;40.30;;;;;;5054638;28;20033;-75
2023/06/15 11:49:20;;;;;;;1.60;1.50;;;30.10;40.50;;;;;;5037550;28;20136;-78
2023/06/15 11:51:47;;;;;;;1.73;1.50;;;30.10;40.40;;;;;;5037158;28;20044;-75
2023/06/15 11:54:15;;;;;;;1.60;1.50;;;30.10;40.40;;;;;;5054935;28;20492;-75
2023/06/15 11:56:48;;;;;;;2.35;1.65;;;30.10;40.30;;;;;;5054076;28;20032;-76
2023/06/15 11:59:18;;;;;;;2.72;1.73;;;30.10;40.40;;;;;;5037309;28;20033;-75
2023/06/15 12:01:44;;;;;;;2.30;1.67;;;30.20;40.40;;;;;;5054023;28;20051;-76
2023/06/15 12:04:12;;;;;;;1.45;1.35;;;30.20;40.30;;;;;;5055303;28;20032;-75
2023/06/15 12:06:44;;;;;;;2.22;1.67;;;30.20;40.20;;;;;;5037073;28;20025;-75
2023/06/15 12:09:10;;;;;;;1.92;1.65;;;30.20;40.10;;;;;;5053355;28;20044;-75
2023/06/15 12:11:37;;;;;;;2.28;1.70;;;30.20;40.00;;;;;;5055591;28;20488;-75
2023/06/15 12:14:07;;;;;;;2.25;1.52;;;30.20;40.00;;;;;;5053584;28;20036;-75
2023/06/15 12:16:33;;;;;;;2.10;1.40;;;30.20;40.00;;;;;;5053484;28;20025;-75
2023/06/15 12:18:59;;;;;;;1.95;1.60;;;30.20;40.10;;;;;;5054915;28;20029;-75
2023/06/15 12:21:33;;;;;;;1.70;1.30;;;30.20;40.00;;;;;;5037012;28;20123;-75
2023/06/15 12:24:02;;;;;;;1.83;1.52;;;30.20;40.10;;;;;;5054679;28;20029;-76
2023/06/15 12:26:32;;;;;;;2.40;1.60;;;30.20;40.00;;;;;;5054292;28;20094;-78
2023/06/15 12:28:59;;;;;;;2.22;1.60;;;30.20;39.90;;;;;;5036721;28;20078;-75
2023/06/15 12:31:32;;;;;;;2.20;1.48;;;30.20;39.80;;;;;;5054247;28;20084;-76
2023/06/15 12:33:58;;;;;;;2.17;1.52;;;30.20;39.80;;;;;;5053638;28;20116;-76
2023/06/15 12:36:27;;;;;;;2.03;1.45;;;30.20;39.60;;;;;;5053596;28;20523;-75
2023/06/15 12:38:52;;;;;;;2.92;1.58;;;30.20;39.40;;;;;;5053217;28;20025;-76
2023/06/15 12:41:18;;;;;;;1.85;1.52;;;30.20;39.20;;;;;;5036422;28;20037;-75
2023/06/15 12:43:47;;;;;;;2.03;1.63;;;30.20;39.20;;;;;;5053960;28;20047;-75
2023/06/15 12:46:13;;;;;;;2.13;1.77;;;30.20;39.30;;;;;;5052743;28;20047;-75
2023/06/15 12:48:39;;;;;;;1.63;1.33;;;30.20;39.30;;;;;;5052980;28;20488;-75
2023/06/15 12:51:04;;;;;;;1.70;1.30;;;30.20;39.30;;;;;;5052745;28;20033;-75
2023/06/15 12:53:30;;;;;;;2.67;1.63;;;30.20;39.40;;;;;;5052574;28;20120;-76